createdAt,value
2019-05-14T00:00:05.444Z,1.13
2019-05-14T00:02:36.642Z,0.90
2019-05-14T00:05:07.254Z,1.10
2019-05-14T00:07:38.618Z,1.20
2019-05-14T00:10:11.936Z,1.00
2019-05-14T00:12:42.676Z,1.20
2019-05-14T00:15:13.715Z,1.13
2019-05-14T00:17:44.239Z,1.50
2019-05-14T00:20:14.699Z,1.50
2019-05-14T00:22:45.353Z,1.17
2019-05-14T00:25:15.965Z,1.10
2019-05-14T00:27:46.787Z,2.10
2019-05-14T00:30:17.518Z,1.50
2019-05-14T00:32:48.006Z,1.30
2019-05-14T00:35:21.490Z,1.30
2019-05-14T00:37:52.445Z,1.40
2019-05-14T00:40:22.546Z,1.23
2019-05-14T00:42:53.664Z,1.30
2019-05-14T00:45:24.095Z,1.50
2019-05-14T00:47:54.463Z,1.50
2019-05-14T00:50:24.708Z,1.67
2019-05-14T00:52:55.864Z,1.50
2019-05-14T00:55:26.620Z,1.63
2019-05-14T00:57:57.075Z,1.37
2019-05-14T01:00:28.149Z,1.30
2019-05-14T01:02:58.928Z,1.70
2019-05-14T01:05:31.981Z,1.73
2019-05-14T01:08:02.053Z,1.80
2019-05-14T01:10:33.345Z,1.90
2019-05-14T01:13:03.625Z,1.60
2019-05-14T01:15:34.110Z,1.77
2019-05-14T01:18:04.590Z,1.60
2019-05-14T01:20:35.381Z,1.70
2019-05-14T01:23:06.135Z,1.83
2019-05-14T01:25:36.632Z,1.90
2019-05-14T01:28:07.141Z,1.80
2019-05-14T01:30:38.380Z,2.00
2019-05-14T01:33:11.867Z,2.10
2019-05-14T01:35:42.174Z,1.40
2019-05-14T01:38:14.743Z,1.60
2019-05-14T01:40:45.219Z,1.70
2019-05-14T01:43:15.635Z,1.93
2019-05-14T01:45:46.473Z,1.87
2019-05-14T01:48:16.566Z,1.97
2019-05-14T01:50:46.650Z,2.00
2019-05-14T01:53:17.772Z,1.80
2019-05-14T01:55:52.062Z,1.87
2019-05-14T01:58:22.790Z,2.03
2019-05-14T02:00:56.500Z,1.90
2019-05-14T02:03:27.334Z,1.80
2019-05-14T02:05:57.581Z,1.70
2019-05-14T02:08:28.922Z,1.80
2019-05-14T02:11:01.731Z,1.90
2019-05-14T02:13:32.136Z,2.10
2019-05-14T02:16:03.276Z,1.93
2019-05-14T02:18:36.770Z,1.73
2019-05-14T02:21:07.433Z,1.70
2019-05-14T02:23:37.795Z,2.23
2019-05-14T02:26:08.594Z,1.83
2019-05-14T02:28:39.139Z,1.80
2019-05-14T02:31:09.643Z,2.07
2019-05-14T02:33:40.640Z,1.77
2019-05-14T02:36:11.890Z,1.73
2019-05-14T02:38:42.531Z,1.60
2019-05-14T02:41:13.715Z,1.73
2019-05-14T02:43:44.587Z,1.80
2019-05-14T02:46:17.534Z,2.07
2019-05-14T02:48:49.154Z,1.77
2019-05-14T02:51:20.409Z,2.00
2019-05-14T02:53:50.749Z,2.50
2019-05-14T02:56:21.006Z,2.20
2019-05-14T02:58:55.426Z,1.83
2019-05-14T03:01:25.611Z,2.43
2019-05-14T03:03:55.840Z,2.10
2019-05-14T03:06:29.188Z,2.30
2019-05-14T03:09:00.119Z,2.17
2019-05-14T03:11:34.403Z,2.17
2019-05-14T03:14:04.844Z,2.27
2019-05-14T03:16:39.255Z,2.00
2019-05-14T03:19:10.004Z,2.27
2019-05-14T03:21:40.666Z,2.30
2019-05-14T03:24:11.671Z,2.10
2019-05-14T03:26:41.926Z,2.13
2019-05-14T03:29:12.572Z,2.43
2019-05-14T03:31:43.653Z,2.87
2019-05-14T03:34:15.330Z,2.30
2019-05-14T03:36:51.784Z,2.27
2019-05-14T03:39:19.107Z,2.80
2019-05-14T03:41:50.062Z,2.73
2019-05-14T03:44:20.910Z,2.90
2019-05-14T03:46:55.455Z,2.80
2019-05-14T03:49:23.295Z,2.67
2019-05-14T03:51:54.935Z,2.50
2019-05-14T03:54:25.492Z,3.40
2019-05-14T03:56:55.844Z,2.53
2019-05-14T03:59:29.134Z,2.50
2019-05-14T04:01:59.671Z,2.90
2019-05-14T04:04:30.750Z,2.30
2019-05-14T04:07:03.346Z,2.70
2019-05-14T04:09:35.296Z,2.83
2019-05-14T04:12:10.018Z,3.13
2019-05-14T04:14:41.525Z,3.10
2019-05-14T04:17:15.873Z,2.60
2019-05-14T04:19:49.778Z,3.00
2019-05-14T04:22:23.120Z,2.47
2019-05-14T04:24:59.423Z,3.40
2019-05-14T04:27:30.570Z,3.17
2019-05-14T04:30:03.364Z,3.30
2019-05-14T04:32:34.328Z,2.93
2019-05-14T04:35:09.586Z,3.07
2019-05-14T04:37:40.090Z,3.07
2019-05-14T04:40:11.180Z,2.87
2019-05-14T04:42:41.686Z,2.70
2019-05-14T04:45:12.582Z,2.90
2019-05-14T04:47:43.002Z,3.10
2019-05-14T04:50:13.435Z,3.00
2019-05-14T04:52:43.695Z,2.30
2019-05-14T04:55:15.052Z,3.17
2019-05-14T04:57:45.533Z,2.60
2019-05-14T05:00:23.232Z,2.90
2019-05-14T05:03:00.013Z,2.90
2019-05-14T05:05:30.075Z,2.93
2019-05-14T05:08:01.656Z,2.80
2019-05-14T05:10:32.600Z,2.57
2019-05-14T05:13:05.460Z,3.00
2019-05-14T05:15:39.577Z,3.33
2019-05-14T05:18:09.960Z,3.20
2019-05-14T05:20:41.947Z,3.07
2019-05-14T05:23:14.639Z,3.20
2019-05-14T05:25:45.275Z,3.37
2019-05-14T05:28:15.494Z,3.73
2019-05-14T05:30:49.034Z,3.50
2019-05-14T05:33:29.311Z,3.40
2019-05-14T05:36:00.119Z,3.70
2019-05-14T05:38:30.335Z,3.40
2019-05-14T05:41:00.588Z,3.37
2019-05-14T05:43:31.114Z,3.30
2019-05-14T05:46:01.205Z,4.10
2019-05-14T05:48:34.324Z,3.30
2019-05-14T05:51:05.444Z,3.20
2019-05-14T05:53:39.059Z,4.00
2019-05-14T05:56:12.219Z,3.67
2019-05-14T05:58:43.539Z,3.97
2019-05-14T06:01:19.657Z,3.87
2019-05-14T06:03:52.107Z,3.17
2019-05-14T06:06:23.017Z,3.10
2019-05-14T06:08:53.557Z,3.00
2019-05-14T06:11:24.465Z,2.90
2019-05-14T06:13:54.646Z,3.00
2019-05-14T06:16:28.932Z,3.07
2019-05-14T06:19:30.786Z,3.20
2019-05-14T06:22:04.203Z,2.80
2019-05-14T06:24:33.445Z,3.30
2019-05-14T06:27:04.479Z,3.00
2019-05-14T06:29:43.221Z,3.00
2019-05-14T06:32:13.935Z,2.57
2019-05-14T06:34:48.629Z,3.30
2019-05-14T06:37:19.167Z,2.90
2019-05-14T06:39:50.540Z,2.73
2019-05-14T06:42:22.126Z,3.10
2019-05-14T06:44:58.619Z,3.23
2019-05-14T06:47:34.335Z,3.03
2019-05-14T06:50:05.029Z,3.30
2019-05-14T06:52:38.376Z,3.30
2019-05-14T06:55:12.079Z,3.50
2019-05-14T06:57:42.266Z,3.60
2019-05-14T07:00:13.176Z,3.97
2019-05-14T07:02:49.017Z,3.50
2019-05-14T07:05:21.910Z,3.27
2019-05-14T07:07:52.291Z,3.67
2019-05-14T07:10:23.276Z,3.43
2019-05-14T07:12:53.625Z,4.00
2019-05-14T07:15:24.472Z,4.03
2019-05-14T07:18:00.206Z,3.33
2019-05-14T07:20:30.315Z,3.77
2019-05-14T07:23:00.848Z,3.83
2019-05-14T07:25:31.942Z,3.63
2019-05-14T07:28:02.487Z,3.57
2019-05-14T07:30:32.859Z,3.60
2019-05-14T07:33:03.706Z,3.67
2019-05-14T07:35:35.072Z,3.50
2019-05-14T07:38:05.285Z,3.20
2019-05-14T07:40:58.567Z,3.97
2019-05-14T07:43:32.410Z,3.77
2019-05-14T07:46:03.057Z,3.50
2019-05-14T07:48:40.584Z,3.80
2019-05-14T07:51:11.120Z,3.30
2019-05-14T07:53:48.795Z,3.40
2019-05-14T07:56:18.887Z,3.97
2019-05-14T07:58:49.495Z,4.00
2019-05-14T08:01:20.566Z,3.47
2019-05-14T08:03:55.070Z,3.50
2019-05-14T08:06:28.221Z,3.53
2019-05-14T08:09:04.881Z,3.97
2019-05-14T08:11:38.759Z,3.53
2019-05-14T08:14:10.574Z,3.40
2019-05-14T08:16:49.111Z,3.33
2019-05-14T08:19:26.320Z,3.60
2019-05-14T08:21:52.322Z,3.40
2019-05-14T08:24:27.172Z,3.47
2019-05-14T08:26:57.915Z,3.20
2019-05-14T08:29:36.734Z,3.50
2019-05-14T08:32:13.876Z,3.57
2019-05-14T08:34:44.564Z,3.20
2019-05-14T08:37:19.124Z,3.13
2019-05-14T08:39:55.094Z,3.20
2019-05-14T08:42:29.058Z,3.20
2019-05-14T08:45:04.653Z,3.60
2019-05-14T08:47:39.135Z,3.03
2019-05-14T08:50:18.686Z,3.10
2019-05-14T08:52:49.176Z,3.37
2019-05-14T08:55:22.237Z,3.23
2019-05-14T08:57:52.558Z,3.07
2019-05-14T09:00:23.044Z,3.23
2019-05-14T09:02:53.407Z,3.20
2019-05-14T09:05:23.705Z,3.27
2019-05-14T09:07:54.422Z,2.40
2019-05-14T09:10:28.578Z,2.53
2019-05-14T09:13:09.862Z,2.87
2019-05-14T09:15:41.687Z,3.20
2019-05-14T09:18:18.246Z,2.70
2019-05-14T09:20:54.386Z,2.67
2019-05-14T09:23:28.362Z,2.60
2019-05-14T09:25:58.827Z,2.37
2019-05-14T09:28:31.274Z,2.40
2019-05-14T09:31:02.092Z,2.57
2019-05-14T09:33:39.155Z,2.30
2019-05-14T09:36:18.891Z,2.30
2019-05-14T09:38:42.794Z,2.50
2019-05-14T09:41:15.430Z,2.50
2019-05-14T09:43:48.666Z,2.50
2019-05-14T09:46:19.297Z,3.00
2019-05-14T09:48:50.014Z,3.60
2019-05-14T09:51:21.970Z,3.10
2019-05-14T09:53:52.367Z,3.10
2019-05-14T09:56:29.003Z,4.37
2019-05-14T09:59:02.701Z,2.80
2019-05-14T10:01:34.591Z,2.90
2019-05-14T10:04:05.378Z,2.70
2019-05-14T10:06:42.079Z,2.70
2019-05-14T10:09:12.507Z,2.43
2019-05-14T10:11:45.055Z,2.37
2019-05-14T10:14:16.395Z,2.30
2019-05-14T10:16:49.075Z,2.90
2019-05-14T10:19:22.965Z,2.47
2019-05-14T10:21:58.638Z,2.80
2019-05-14T10:24:33.245Z,2.37
2019-05-14T10:27:04.273Z,2.20
2019-05-14T10:29:39.370Z,2.30
2019-05-14T10:32:18.864Z,2.13
2019-05-14T10:35:04.251Z,2.30
2019-05-14T10:37:35.403Z,2.27
2019-05-14T10:40:10.297Z,2.70
2019-05-14T10:42:41.946Z,2.57
2019-05-14T10:45:18.647Z,2.43
2019-05-14T10:47:51.425Z,2.37
2019-05-14T10:50:29.311Z,2.40
2019-05-14T10:53:09.115Z,2.20
2019-05-14T10:55:48.589Z,2.00
2019-05-14T10:58:19.900Z,2.00
2019-05-14T11:00:52.499Z,2.40
2019-05-14T11:03:24.857Z,2.07
2019-05-14T11:05:56.113Z,2.10
2019-05-14T11:08:29.848Z,2.40
2019-05-14T11:11:03.811Z,1.63
2019-05-14T11:13:33.240Z,2.60
2019-05-14T11:16:10.172Z,2.13
2019-05-14T11:18:43.786Z,2.27
2019-05-14T11:21:24.723Z,2.00
2019-05-14T11:23:49.147Z,2.20
2019-05-14T11:26:25.009Z,2.20
2019-05-14T11:29:10.494Z,2.40
2019-05-14T11:31:42.386Z,2.40
2019-05-14T11:34:14.951Z,2.10
2019-05-14T11:37:02.646Z,1.90
2019-05-14T11:39:35.079Z,2.40
2019-05-14T11:42:09.945Z,2.30
2019-05-14T11:44:40.744Z,2.10
2019-05-14T11:47:13.246Z,2.47
2019-05-14T11:49:49.252Z,2.30
2019-05-14T11:52:19.056Z,1.90
2019-05-14T11:54:53.135Z,1.93
2019-05-14T11:57:25.500Z,2.30
2019-05-14T11:59:58.149Z,2.30
2019-05-14T12:02:29.555Z,2.30
2019-05-14T12:05:03.363Z,2.07
2019-05-14T12:07:38.877Z,1.90
2019-05-14T12:10:10.182Z,2.27
2019-05-14T12:12:45.063Z,2.40
2019-05-14T12:15:19.677Z,2.40
2019-05-14T12:17:51.614Z,2.27
2019-05-14T12:20:35.058Z,2.50
2019-05-14T12:23:09.356Z,2.30
2019-05-14T12:25:43.591Z,2.30
2019-05-14T12:28:14.201Z,2.37
2019-05-14T12:30:48.972Z,2.27
2019-05-14T12:33:19.973Z,2.20
2019-05-14T12:35:54.792Z,2.00
2019-05-14T12:38:29.730Z,1.97
2019-05-14T12:41:01.005Z,2.00
2019-05-14T12:43:34.367Z,2.00
2019-05-14T12:46:05.943Z,1.90
2019-05-14T12:48:45.171Z,1.90
2019-05-14T12:51:18.558Z,2.00
2019-05-14T12:53:51.771Z,1.80
2019-05-14T12:56:25.954Z,1.73
2019-05-14T12:58:58.346Z,2.00
2019-05-14T13:01:29.500Z,1.90
2019-05-14T13:04:02.460Z,1.90
2019-05-14T13:06:34.513Z,2.00
2019-05-14T13:09:09.181Z,1.80
2019-05-14T13:11:47.859Z,1.60
2019-05-14T13:14:18.156Z,1.87
2019-05-14T13:16:54.814Z,1.87
2019-05-14T13:19:28.507Z,1.80
2019-05-14T13:22:13.112Z,2.17
2019-05-14T13:24:33.131Z,1.63
2019-05-14T13:27:10.566Z,2.03
2019-05-14T13:29:55.165Z,1.80
2019-05-14T13:32:29.445Z,1.63
2019-05-14T13:35:02.520Z,1.70
2019-05-14T13:37:34.700Z,2.07
2019-05-14T13:40:09.266Z,1.83
2019-05-14T13:42:44.414Z,1.77
2019-05-14T13:45:18.799Z,1.60
2019-05-14T13:47:49.115Z,2.00
2019-05-14T13:50:21.491Z,1.87
2019-05-14T13:53:06.709Z,1.70
2019-05-14T13:55:27.993Z,1.57
2019-05-14T13:58:09.506Z,2.10
2019-05-14T14:00:42.676Z,1.80
2019-05-14T14:03:14.796Z,2.00
2019-05-14T14:05:52.984Z,2.07
2019-05-14T14:08:23.936Z,1.80
2019-05-14T14:11:02.058Z,1.83
2019-05-14T14:13:31.465Z,1.90
2019-05-14T14:16:14.687Z,1.77
2019-05-14T14:18:45.202Z,1.90
2019-05-14T14:21:19.569Z,1.60
2019-05-14T14:23:55.518Z,1.60
2019-05-14T14:26:30.981Z,1.77
2019-05-14T14:29:05.874Z,1.60
2019-05-14T14:31:41.667Z,1.47
2019-05-14T14:34:12.499Z,1.50
2019-05-14T14:36:54.658Z,1.40
2019-05-14T14:39:41.361Z,1.17
2019-05-14T14:42:14.201Z,1.77
2019-05-14T14:44:45.199Z,1.70
2019-05-14T14:47:24.852Z,1.73
2019-05-14T14:50:01.704Z,1.90
2019-05-14T14:52:42.503Z,1.70
2019-05-14T14:55:15.149Z,1.50
2019-05-14T14:58:03.463Z,1.40
2019-05-14T15:00:38.516Z,1.33
2019-05-14T15:03:13.798Z,1.07
2019-05-14T15:05:49.808Z,1.50
2019-05-14T15:08:29.527Z,1.37
2019-05-14T15:11:08.464Z,1.50
2019-05-14T15:16:43.296Z,1.50
2019-05-14T15:19:23.394Z,2.67
2019-05-14T15:21:59.950Z,2.17
2019-05-14T15:24:33.696Z,1.50
2019-05-14T15:27:14.647Z,2.70
2019-05-14T15:29:43.278Z,2.00
2019-05-14T15:32:15.747Z,1.50
2019-05-14T15:35:29.457Z,2.30
2019-05-14T15:37:33.667Z,1.50
2019-05-14T15:40:09.816Z,1.73
2019-05-14T15:42:42.785Z,1.80
2019-05-14T15:45:14.084Z,1.80
2019-05-14T15:47:51.193Z,1.63
2019-05-14T15:50:32.705Z,1.67
2019-05-14T15:53:19.516Z,1.20
2019-05-14T15:55:51.063Z,1.40
2019-05-14T15:58:30.549Z,1.40
2019-05-14T16:01:09.912Z,2.07
2019-05-14T16:03:55.794Z,1.50
2019-05-14T16:06:40.098Z,1.53
2019-05-14T16:09:12.518Z,1.47
2019-05-14T16:11:48.304Z,1.30
2019-05-14T16:14:38.765Z,1.33
2019-05-14T16:17:15.714Z,1.13
2019-05-14T16:19:55.323Z,1.20
2019-05-14T16:22:33.243Z,2.20
2019-05-14T16:25:28.541Z,3.80
2019-05-14T16:28:00.946Z,1.80
2019-05-14T16:30:39.703Z,1.37
2019-05-14T16:33:18.928Z,1.40
2019-05-14T16:35:54.759Z,2.03
2019-05-14T16:38:50.545Z,1.70
2019-05-14T16:41:18.665Z,1.37
2019-05-14T16:43:51.389Z,1.30
2019-05-14T16:46:28.916Z,1.03
2019-05-14T16:49:02.220Z,1.40
2019-05-14T16:51:49.552Z,1.30
2019-05-14T16:54:23.087Z,1.30
2019-05-14T16:56:54.919Z,1.03
2019-05-14T16:59:33.695Z,1.30
2019-05-14T17:02:09.879Z,1.23
2019-05-14T17:04:43.715Z,0.93
2019-05-14T17:07:18.297Z,1.20
2019-05-14T17:09:55.417Z,1.37
2019-05-14T17:12:48.237Z,1.37
2019-05-14T17:15:28.851Z,1.23
2019-05-14T17:18:00.353Z,1.33
2019-05-14T17:20:39.424Z,1.20
2019-05-14T17:23:13.809Z,1.50
2019-05-14T17:25:52.832Z,1.10
2019-05-14T17:28:49.394Z,1.03
2019-05-14T17:31:31.142Z,1.13
2019-05-14T17:34:02.939Z,1.20
2019-05-14T17:36:43.227Z,1.50
2019-05-14T17:39:21.410Z,1.07
2019-05-14T17:41:58.931Z,1.07
2019-05-14T17:44:39.018Z,1.30
2019-05-14T17:47:23.814Z,1.00
2019-05-14T17:50:11.419Z,1.20
2019-05-14T17:52:45.150Z,1.50
2019-05-14T17:55:43.150Z,1.10
2019-05-14T17:58:13.408Z,1.00
2019-05-14T18:00:54.379Z,1.20
2019-05-14T18:03:36.744Z,1.30
2019-05-14T18:06:14.103Z,1.10
2019-05-14T18:08:58.325Z,1.20
2019-05-14T18:11:49.106Z,0.97
2019-05-14T18:14:28.211Z,1.10
2019-05-14T18:17:30.084Z,1.00
2019-05-14T18:20:18.215Z,1.10
2019-05-14T18:22:52.060Z,1.13
2019-05-14T18:25:30.211Z,1.20
2019-05-14T18:28:09.913Z,1.40
2019-05-14T18:30:42.745Z,1.43
2019-05-14T18:33:14.713Z,1.37
2019-05-14T18:35:52.130Z,1.20
2019-05-14T18:38:28.990Z,1.60
2019-05-14T18:41:08.508Z,1.60
2019-05-14T18:43:51.212Z,1.30
2019-05-14T18:46:18.961Z,1.20
2019-05-14T18:48:50.719Z,1.00
2019-05-14T18:51:28.773Z,1.50
2019-05-14T18:54:02.785Z,1.43
2019-05-14T18:56:38.840Z,1.13
2019-05-14T18:59:21.256Z,1.43
2019-05-14T19:02:00.486Z,1.07
2019-05-14T19:04:34.180Z,1.20
2019-05-14T19:07:10.631Z,1.43
2019-05-14T19:09:45.854Z,1.50
2019-05-14T19:12:32.740Z,1.57
2019-05-14T19:15:08.722Z,1.57
2019-05-14T19:17:51.212Z,1.40
2019-05-14T19:20:19.351Z,1.37
2019-05-14T19:23:00.618Z,1.23
2019-05-14T19:25:39.153Z,1.20
2019-05-14T19:28:09.930Z,1.50
2019-05-14T19:30:52.430Z,1.10
2019-05-14T19:33:28.784Z,1.10
2019-05-14T19:36:28.154Z,1.33
2019-05-14T19:38:58.387Z,1.10
2019-05-14T19:41:29.818Z,1.00
2019-05-14T19:44:02.392Z,0.90
2019-05-14T19:46:34.008Z,0.93
2019-05-14T19:49:22.325Z,0.90
2019-05-14T19:52:11.143Z,0.77
2019-05-14T19:54:48.724Z,1.10
2019-05-14T19:57:23.815Z,1.00
2019-05-14T20:00:09.140Z,1.10
2019-05-14T20:03:09.053Z,0.93
2019-05-14T20:05:46.440Z,0.93
2019-05-14T20:08:29.380Z,1.10
2019-05-14T20:11:06.531Z,1.30
2019-05-14T20:13:48.629Z,1.30
2019-05-14T20:16:31.985Z,1.00
2019-05-14T20:19:09.479Z,1.23
2019-05-14T20:21:48.419Z,1.97
2019-05-14T20:24:23.439Z,1.50
2019-05-14T20:27:07.700Z,0.97
2019-05-14T20:29:37.873Z,1.03
2019-05-14T20:32:13.754Z,1.47
2019-05-14T20:34:58.126Z,1.37
2019-05-14T20:37:58.680Z,1.20
2019-05-14T20:40:38.256Z,1.30
2019-05-14T20:43:29.107Z,1.20
2019-05-14T20:46:08.343Z,1.27
2019-05-14T20:48:47.765Z,1.37
2019-05-14T20:51:34.932Z,1.70
2019-05-14T20:54:08.772Z,1.60
2019-05-14T20:56:40.246Z,1.33
2019-05-14T20:59:11.292Z,1.67
2019-05-14T21:01:42.324Z,1.40
2019-05-14T21:04:18.895Z,1.50
2019-05-14T21:07:02.114Z,1.50
2019-05-14T21:09:38.389Z,1.53
2019-05-14T21:12:08.358Z,1.83
2019-05-14T21:14:43.603Z,2.00
2019-05-14T21:17:19.098Z,1.67
2019-05-14T21:19:52.281Z,1.43
2019-05-14T21:22:23.723Z,2.07
2019-05-14T21:24:58.758Z,1.90
2019-05-14T21:27:44.336Z,1.70
2019-05-14T21:30:05.335Z,1.60
2019-05-14T21:32:35.607Z,1.70
2019-05-14T21:35:11.071Z,1.70
2019-05-14T21:37:51.430Z,1.80
2019-05-14T21:40:29.188Z,1.90
2019-05-14T21:43:04.817Z,1.80
2019-05-14T21:45:38.142Z,1.80
2019-05-14T21:48:13.518Z,1.70
2019-05-14T21:50:46.384Z,1.60
2019-05-14T21:53:19.654Z,1.77
2019-05-14T21:55:51.109Z,1.93
2019-05-14T21:58:22.515Z,1.50
2019-05-14T22:00:59.036Z,1.50
2019-05-14T22:03:40.231Z,1.70
2019-05-14T22:06:11.155Z,1.70
2019-05-14T22:08:45.543Z,1.63
2019-05-14T22:11:18.642Z,1.80
2019-05-14T22:13:53.348Z,1.60
2019-05-14T22:16:29.801Z,2.10
2019-05-14T22:19:04.650Z,2.07
2019-05-14T22:21:35.090Z,1.90
2019-05-14T22:24:08.422Z,1.90
2019-05-14T22:26:43.551Z,2.03
2019-05-14T22:29:29.797Z,2.00
2019-05-14T22:32:10.260Z,1.80
2019-05-14T22:34:41.461Z,2.03
2019-05-14T22:37:19.860Z,1.87
2019-05-14T22:39:50.043Z,1.70
2019-05-14T22:42:20.411Z,1.80
2019-05-14T22:44:53.557Z,2.00
2019-05-14T22:47:28.354Z,1.90
2019-05-14T22:49:59.534Z,2.33
2019-05-14T22:52:31.283Z,1.70
2019-05-14T22:55:06.387Z,2.20
2019-05-14T22:57:41.154Z,2.27
2019-05-14T23:00:13.705Z,2.00
2019-05-14T23:02:49.025Z,2.20
2019-05-14T23:05:19.742Z,2.20
2019-05-14T23:08:00.460Z,2.50
2019-05-14T23:10:33.308Z,2.27
2019-05-14T23:13:04.211Z,2.10
2019-05-14T23:15:38.374Z,2.50
2019-05-14T23:18:18.046Z,2.20
2019-05-14T23:20:49.193Z,2.60
2019-05-14T23:23:22.687Z,2.63
2019-05-14T23:25:53.635Z,2.60
2019-05-14T23:28:24.140Z,2.60
2019-05-14T23:30:55.145Z,3.03
2019-05-14T23:33:25.846Z,2.60
2019-05-14T23:36:02.604Z,2.80
2019-05-14T23:38:38.441Z,2.90
2019-05-14T23:41:09.074Z,3.10
2019-05-14T23:43:45.870Z,2.47
2019-05-14T23:46:18.310Z,2.90
2019-05-14T23:48:49.178Z,2.60
2019-05-14T23:51:19.881Z,2.80
2019-05-14T23:53:51.000Z,2.87
2019-05-14T23:56:24.542Z,2.80
2019-05-14T23:59:02.171Z,2.60
